sensor_id;sensor_type;location;lat;lon;timestamp;pressure;altitude;pressure_sealevel;temperature;humidity
52535;BME280;38443;53.164;5.802;2023-04-26T00:00:51;101995.47;;;1.87;100.00
52535;BME280;38443;53.164;5.802;2023-04-26T00:03:17;101995.38;;;1.84;100.00
52535;BME280;38443;53.164;5.802;2023-04-26T00:05:43;102002.31;;;1.78;100.00
52535;BME280;38443;53.164;5.802;2023-04-26T00:08:08;101994.31;;;1.75;100.00
52535;BME280;38443;53.164;5.802;2023-04-26T00:10:33;101994.34;;;1.77;100.00
52535;BME280;38443;53.164;5.802;2023-04-26T00:12:58;101995.31;;;1.81;100.00
52535;BME280;38443;53.164;5.802;2023-04-26T00:15:24;101993.63;;;1.84;100.00
52535;BME280;38443;53.164;5.802;2023-04-26T00:17:49;101998.19;;;1.90;100.00
52535;BME280;38443;53.164;5.802;2023-04-26T00:20:14;101995.69;;;1.96;100.00
52535;BME280;38443;53.164;5.802;2023-04-26T00:22:40;102015.22;;;2.03;100.00
52535;BME280;38443;53.164;5.802;2023-04-26T00:25:05;102008.25;;;2.06;100.00
52535;BME280;38443;53.164;5.802;2023-04-26T00:27:31;102005.06;;;2.19;100.00
52535;BME280;38443;53.164;5.802;2023-04-26T00:29:56;102002.78;;;2.35;100.00
52535;BME280;38443;53.164;5.802;2023-04-26T00:32:21;102003.91;;;2.46;100.00
52535;BME280;38443;53.164;5.802;2023-04-26T00:34:47;102001.53;;;2.57;100.00
52535;BME280;38443;53.164;5.802;2023-04-26T00:37:12;101997.22;;;2.62;100.00
52535;BME280;38443;53.164;5.802;2023-04-26T00:39:37;101988.50;;;2.65;100.00
52535;BME280;38443;53.164;5.802;2023-04-26T00:42:03;101987.63;;;2.66;100.00
52535;BME280;38443;53.164;5.802;2023-04-26T00:44:28;101993.72;;;2.63;100.00
52535;BME280;38443;53.164;5.802;2023-04-26T00:46:53;101998.94;;;2.60;100.00
52535;BME280;38443;53.164;5.802;2023-04-26T00:49:22;101997.97;;;2.55;100.00
52535;BME280;38443;53.164;5.802;2023-04-26T00:51:49;101990.78;;;2.49;100.00
52535;BME280;38443;53.164;5.802;2023-04-26T00:54:16;101994.97;;;2.39;100.00
52535;BME280;38443;53.164;5.802;2023-04-26T00:56:42;101988.66;;;2.33;100.00
52535;BME280;38443;53.164;5.802;2023-04-26T00:59:08;101991.06;;;2.24;100.00
52535;BME280;38443;53.164;5.802;2023-04-26T01:01:34;101997.03;;;2.15;100.00
52535;BME280;38443;53.164;5.802;2023-04-26T01:04:00;101994.22;;;2.07;100.00
52535;BME280;38443;53.164;5.802;2023-04-26T01:06:32;101980.72;;;1.96;100.00
52535;BME280;38443;53.164;5.802;2023-04-26T01:08:58;101995.53;;;1.90;100.00
52535;BME280;38443;53.164;5.802;2023-04-26T01:11:24;101992.78;;;1.85;100.00
52535;BME280;38443;53.164;5.802;2023-04-26T01:13:50;101995.34;;;1.82;100.00
52535;BME280;38443;53.164;5.802;2023-04-26T01:16:18;101997.06;;;1.80;100.00
52535;BME280;38443;53.164;5.802;2023-04-26T01:18:50;101997.97;;;1.81;100.00
52535;BME280;38443;53.164;5.802;2023-04-26T01:21:25;101990.00;;;1.79;100.00
52535;BME280;38443;53.164;5.802;2023-04-26T01:23:50;101999.63;;;1.77;100.00
52535;BME280;38443;53.164;5.802;2023-04-26T01:26:16;101996.91;;;1.74;100.00
52535;BME280;38443;53.164;5.802;2023-04-26T01:28:41;101989.72;;;1.68;100.00
52535;BME280;38443;53.164;5.802;2023-04-26T01:31:07;101994.81;;;1.62;100.00
52535;BME280;38443;53.164;5.802;2023-04-26T01:33:32;101992.97;;;1.58;100.00
52535;BME280;38443;53.164;5.802;2023-04-26T01:35:57;101995.38;;;1.49;100.00
52535;BME280;38443;53.164;5.802;2023-04-26T01:38:23;101999.63;;;1.44;100.00
52535;BME280;38443;53.164;5.802;2023-04-26T01:40:48;101996.94;;;1.41;100.00
52535;BME280;38443;53.164;5.802;2023-04-26T01:43:13;101994.25;;;1.39;100.00
52535;BME280;38443;53.164;5.802;2023-04-26T01:45:39;101993.38;;;1.40;100.00
52535;BME280;38443;53.164;5.802;2023-04-26T01:48:05;101992.41;;;1.36;100.00
52535;BME280;38443;53.164;5.802;2023-04-26T01:50:30;101994.13;;;1.36;100.00
52535;BME280;38443;53.164;5.802;2023-04-26T01:52:56;101998.41;;;1.31;100.00
52535;BME280;38443;53.164;5.802;2023-04-26T01:55:21;101993.09;;;1.29;100.00
52535;BME280;38443;53.164;5.802;2023-04-26T01:57:46;101986.00;;;1.28;100.00
52535;BME280;38443;53.164;5.802;2023-04-26T02:00:11;101992.22;;;1.29;100.00
52535;BME280;38443;53.164;5.802;2023-04-26T02:02:37;101993.16;;;1.31;100.00
52535;BME280;38443;53.164;5.802;2023-04-26T02:05:02;101987.88;;;1.31;100.00
52535;BME280;38443;53.164;5.802;2023-04-26T02:07:28;101986.94;;;1.30;100.00
52535;BME280;38443;53.164;5.802;2023-04-26T02:09:53;101985.13;;;1.28;100.00
52535;BME280;38443;53.164;5.802;2023-04-26T02:12:18;101991.13;;;1.22;100.00
52535;BME280;38443;53.164;5.802;2023-04-26T02:14:43;101989.25;;;1.16;100.00
52535;BME280;38443;53.164;5.802;2023-04-26T02:17:09;101989.25;;;1.16;100.00
52535;BME280;38443;53.164;5.802;2023-04-26T02:19:34;101995.41;;;1.17;100.00
52535;BME280;38443;53.164;5.802;2023-04-26T02:21:59;101992.75;;;1.17;100.00
52535;BME280;38443;53.164;5.802;2023-04-26T02:24:25;101997.16;;;1.18;100.00
52535;BME280;38443;53.164;5.802;2023-04-26T02:26:50;101998.16;;;1.22;100.00
52535;BME280;38443;53.164;5.802;2023-04-26T02:29:17;102002.72;;;1.27;100.00
52535;BME280;38443;53.164;5.802;2023-04-26T02:31:42;102002.75;;;1.29;100.00
52535;BME280;38443;53.164;5.802;2023-04-26T02:34:07;102009.19;;;1.40;100.00
52535;BME280;38443;53.164;5.802;2023-04-26T02:36:33;101997.09;;;1.48;100.00
52535;BME280;38443;53.164;5.802;2023-04-26T02:38:58;101998.25;;;1.58;100.00
52535;BME280;38443;53.164;5.802;2023-04-26T02:41:24;101991.50;;;1.69;100.00
52535;BME280;38443;53.164;5.802;2023-04-26T02:43:50;101993.38;;;1.73;100.00
52535;BME280;38443;53.164;5.802;2023-04-26T02:46:15;101996.22;;;1.81;100.00
52535;BME280;38443;53.164;5.802;2023-04-26T02:48:41;101993.63;;;1.83;100.00
52535;BME280;38443;53.164;5.802;2023-04-26T02:51:06;101994.53;;;1.85;100.00
52535;BME280;38443;53.164;5.802;2023-04-26T02:53:31;101983.06;;;1.83;100.00
52535;BME280;38443;53.164;5.802;2023-04-26T02:55:57;101985.59;;;1.79;100.00
52535;BME280;38443;53.164;5.802;2023-04-26T02:58:22;101981.16;;;1.77;100.00
52535;BME280;38443;53.164;5.802;2023-04-26T03:00:47;101981.00;;;1.72;100.00
52535;BME280;38443;53.164;5.802;2023-04-26T03:03:13;101987.00;;;1.65;100.00
52535;BME280;38443;53.164;5.802;2023-04-26T03:05:39;101978.22;;;1.65;100.00
52535;BME280;38443;53.164;5.802;2023-04-26T03:08:04;101985.97;;;1.60;100.00
52535;BME280;38443;53.164;5.802;2023-04-26T03:10:30;101981.47;;;1.56;100.00
52535;BME280;38443;53.164;5.802;2023-04-26T03:12:55;101982.31;;;1.53;100.00
52535;BME280;38443;53.164;5.802;2023-04-26T03:15:21;101978.69;;;1.50;100.00
52535;BME280;38443;53.164;5.802;2023-04-26T03:17:46;101997.19;;;1.51;100.00
52535;BME280;38443;53.164;5.802;2023-04-26T03:20:11;101997.19;;;1.51;100.00
52535;BME280;38443;53.164;5.802;2023-04-26T03:22:37;102001.66;;;1.54;100.00
52535;BME280;38443;53.164;5.802;2023-04-26T03:25:03;101998.25;;;1.58;100.00
52535;BME280;38443;53.164;5.802;2023-04-26T03:27:29;101992.97;;;1.58;100.00
52535;BME280;38443;53.164;5.802;2023-04-26T03:29:54;101993.78;;;1.55;100.00
52535;BME280;38443;53.164;5.802;2023-04-26T03:32:20;101996.31;;;1.52;100.00
52535;BME280;38443;53.164;5.802;2023-04-26T03:34:45;101996.28;;;1.49;100.00
52535;BME280;38443;53.164;5.802;2023-04-26T03:37:12;101989.16;;;1.47;100.00
52535;BME280;38443;53.164;5.802;2023-04-26T03:39:38;101994.41;;;1.45;100.00
52535;BME280;38443;53.164;5.802;2023-04-26T03:42:03;101986.53;;;1.48;100.00
52535;BME280;38443;53.164;5.802;2023-04-26T03:44:28;101987.53;;;1.52;100.00
52535;BME280;38443;53.164;5.802;2023-04-26T03:46:54;101978.84;;;1.56;100.00
52535;BME280;38443;53.164;5.802;2023-04-26T03:49:20;101974.59;;;1.61;100.00
52535;BME280;38443;53.164;5.802;2023-04-26T03:51:45;101974.53;;;1.59;100.00
52535;BME280;38443;53.164;5.802;2023-04-26T03:54:10;101985.03;;;1.56;100.00
52535;BME280;38443;53.164;5.802;2023-04-26T03:56:35;101974.34;;;1.52;100.00
52535;BME280;38443;53.164;5.802;2023-04-26T03:59:01;101976.94;;;1.50;100.00
52535;BME280;38443;53.164;5.802;2023-04-26T04:01:26;101972.53;;;1.49;100.00
52535;BME280;38443;53.164;5.802;2023-04-26T04:03:52;101973.34;;;1.48;100.00
52535;BME280;38443;53.164;5.802;2023-04-26T04:06:17;101970.72;;;1.47;100.00
52535;BME280;38443;53.164;5.802;2023-04-26T04:08:43;101972.41;;;1.45;100.00
52535;BME280;38443;53.164;5.802;2023-04-26T04:11:08;101965.38;;;1.45;100.00
52535;BME280;38443;53.164;5.802;2023-04-26T04:13:33;101967.97;;;1.44;100.00
52535;BME280;38443;53.164;5.802;2023-04-26T04:15:58;101972.38;;;1.43;100.00
52535;BME280;38443;53.164;5.802;2023-04-26T04:18:24;101972.31;;;1.42;100.00
52535;BME280;38443;53.164;5.802;2023-04-26T04:20:50;101972.25;;;1.38;100.00
52535;BME280;38443;53.164;5.802;2023-04-26T04:23:15;101964.19;;;1.34;100.00
52535;BME280;38443;53.164;5.802;2023-04-26T04:25:41;101972.94;;;1.31;100.00
52535;BME280;38443;53.164;5.802;2023-04-26T04:28:08;101975.50;;;1.30;100.00
52535;BME280;38443;53.164;5.802;2023-04-26T04:30:33;101982.44;;;1.25;100.00
52535;BME280;38443;53.164;5.802;2023-04-26T04:32:58;101979.69;;;1.22;100.00
52535;BME280;38443;53.164;5.802;2023-04-26T04:35:24;101983.19;;;1.21;100.00
52535;BME280;38443;53.164;5.802;2023-04-26T04:37:54;101985.78;;;1.19;100.00
52535;BME280;38443;53.164;5.802;2023-04-26T04:40:21;101982.25;;;1.18;100.00
52535;BME280;38443;53.164;5.802;2023-04-26T04:42:46;101987.59;;;1.22;100.00
52535;BME280;38443;53.164;5.802;2023-04-26T04:45:12;101992.94;;;1.23;100.00
52535;BME280;38443;53.164;5.802;2023-04-26T04:47:38;101988.59;;;1.25;100.00
52535;BME280;38443;53.164;5.802;2023-04-26T04:50:07;101990.34;;;1.26;100.00
52535;BME280;38443;53.164;5.802;2023-04-26T04:52:32;101982.50;;;1.28;100.00
52535;BME280;38443;53.164;5.802;2023-04-26T04:54:57;101990.44;;;1.29;100.00
52535;BME280;38443;53.164;5.802;2023-04-26T04:57:23;101988.66;;;1.28;100.00
52535;BME280;38443;53.164;5.802;2023-04-26T04:59:48;101989.53;;;1.27;100.00
52535;BME280;38443;53.164;5.802;2023-04-26T05:02:14;101993.91;;;1.27;100.00
52535;BME280;38443;53.164;5.802;2023-04-26T05:04:39;101989.41;;;1.24;100.00
52535;BME280;38443;53.164;5.802;2023-04-26T05:07:05;101998.25;;;1.25;100.00
52535;BME280;38443;53.164;5.802;2023-04-26T05:09:30;101988.53;;;1.24;100.00
52535;BME280;38443;53.164;5.802;2023-04-26T05:11:56;101989.41;;;1.24;100.00
52535;BME280;38443;53.164;5.802;2023-04-26T05:14:21;101997.38;;;1.26;100.00
52535;BME280;38443;53.164;5.802;2023-04-26T05:16:47;102004.47;;;1.28;100.00
52535;BME280;38443;53.164;5.802;2023-04-26T05:19:12;102000.13;;;1.30;100.00
52535;BME280;38443;53.164;5.802;2023-04-26T05:21:38;102000.22;;;1.33;100.00
52535;BME280;38443;53.164;5.802;2023-04-26T05:24:03;101995.91;;;1.35;100.00
52535;BME280;38443;53.164;5.802;2023-04-26T05:26:28;102011.81;;;1.38;100.00
52535;BME280;38443;53.164;5.802;2023-04-26T05:28:54;102009.34;;;1.45;100.00
52535;BME280;38443;53.164;5.802;2023-04-26T05:31:19;102004.34;;;1.55;100.00
52535;BME280;38443;53.164;5.802;2023-04-26T05:33:45;102016.09;;;1.68;100.00
52535;BME280;38443;53.164;5.802;2023-04-26T05:36:11;102010.25;;;1.80;100.00
52535;BME280;38443;53.164;5.802;2023-04-26T05:38:36;102008.78;;;1.91;100.00
52535;BME280;38443;53.164;5.802;2023-04-26T05:41:02;102017.94;;;2.06;100.00
52535;BME280;38443;53.164;5.802;2023-04-26T05:43:27;102014.00;;;2.26;100.00
52535;BME280;38443;53.164;5.802;2023-04-26T05:45:53;102015.22;;;2.39;100.00
52535;BME280;38443;53.164;5.802;2023-04-26T05:48:22;102016.31;;;2.49;100.00
52535;BME280;38443;53.164;5.802;2023-04-26T05:50:49;102021.69;;;2.53;100.00
52535;BME280;38443;53.164;5.802;2023-04-26T05:53:15;102019.13;;;2.56;100.00
52535;BME280;38443;53.164;5.802;2023-04-26T05:55:40;102012.13;;;2.58;100.00
52535;BME280;38443;53.164;5.802;2023-04-26T05:58:06;102014.94;;;2.66;100.00
52535;BME280;38443;53.164;5.802;2023-04-26T06:00:31;102014.28;;;2.76;100.00
52535;BME280;38443;53.164;5.802;2023-04-26T06:02:57;102017.22;;;2.90;100.00
52535;BME280;38443;53.164;5.802;2023-04-26T06:05:22;102018.38;;;3.05;100.00
52535;BME280;38443;53.164;5.802;2023-04-26T06:07:48;102022.19;;;3.17;100.00
52535;BME280;38443;53.164;5.802;2023-04-26T06:10:13;102020.66;;;3.29;100.00
52535;BME280;38443;53.164;5.802;2023-04-26T06:12:38;102021.59;;;3.32;100.00
52535;BME280;38443;53.164;5.802;2023-04-26T06:15:04;102025.25;;;3.39;100.00
52535;BME280;38443;53.164;5.802;2023-04-26T06:17:29;102025.38;;;3.45;100.00
52535;BME280;38443;53.164;5.802;2023-04-26T06:19:55;102026.50;;;3.58;100.00
52535;BME280;38443;53.164;5.802;2023-04-26T06:22:20;102016.09;;;3.69;100.00
52535;BME280;38443;53.164;5.802;2023-04-26T06:24:45;102031.38;;;3.84;100.00
52535;BME280;38443;53.164;5.802;2023-04-26T06:27:11;102017.47;;;3.97;100.00
52535;BME280;38443;53.164;5.802;2023-04-26T06:29:36;102020.47;;;4.18;100.00
52535;BME280;38443;53.164;5.802;2023-04-26T06:32:01;102016.03;;;4.78;100.00
52535;BME280;38443;53.164;5.802;2023-04-26T06:34:26;102014.47;;;5.72;100.00
52535;BME280;38443;53.164;5.802;2023-04-26T06:36:52;102004.31;;;6.22;100.00
52535;BME280;38443;53.164;5.802;2023-04-26T06:39:17;101999.19;;;6.52;100.00
52535;BME280;38443;53.164;5.802;2023-04-26T06:41:42;101985.22;;;6.96;100.00
52535;BME280;38443;53.164;5.802;2023-04-26T06:44:08;101983.63;;;7.66;100.00
52535;BME280;38443;53.164;5.802;2023-04-26T06:46:33;101983.63;;;7.83;100.00
52535;BME280;38443;53.164;5.802;2023-04-26T06:48:59;101975.59;;;7.58;100.00
52535;BME280;38443;53.164;5.802;2023-04-26T06:51:25;101988.84;;;7.14;100.00
52535;BME280;38443;53.164;5.802;2023-04-26T06:53:51;101991.31;;;6.72;100.00
52535;BME280;38443;53.164;5.802;2023-04-26T06:56:16;101987.63;;;6.50;100.00
52535;BME280;38443;53.164;5.802;2023-04-26T06:59:01;101996.47;;;6.42;100.00
52535;BME280;38443;53.164;5.802;2023-04-26T07:01:27;101994.69;;;6.45;100.00
52535;BME280;38443;53.164;5.802;2023-04-26T07:03:56;102001.81;;;6.51;100.00
52535;BME280;38443;53.164;5.802;2023-04-26T07:06:22;102001.13;;;6.83;100.00
52535;BME280;38443;53.164;5.802;2023-04-26T07:08:48;101988.88;;;7.28;100.00
52535;BME280;38443;53.164;5.802;2023-04-26T07:11:13;101980.94;;;7.63;100.00
52535;BME280;38443;53.164;5.802;2023-04-26T07:13:38;101988.06;;;7.95;100.00
52535;BME280;38443;53.164;5.802;2023-04-26T07:16:04;101986.28;;;7.77;100.00
52535;BME280;38443;53.164;5.802;2023-04-26T07:18:29;101988.03;;;7.53;100.00
52535;BME280;38443;53.164;5.802;2023-04-26T07:20:55;101997.78;;;7.53;100.00
52535;BME280;38443;53.164;5.802;2023-04-26T07:23:21;101995.97;;;7.33;100.00
52535;BME280;38443;53.164;5.802;2023-04-26T07:25:46;101998.69;;;7.50;100.00
52535;BME280;38443;53.164;5.802;2023-04-26T07:28:11;101996.84;;;7.35;100.00
52535;BME280;38443;53.164;5.802;2023-04-26T07:30:36;102001.31;;;7.39;100.00
52535;BME280;38443;53.164;5.802;2023-04-26T07:33:02;101996.81;;;7.22;100.00
52535;BME280;38443;53.164;5.802;2023-04-26T07:35:27;102001.31;;;7.32;100.00
52535;BME280;38443;53.164;5.802;2023-04-26T07:37:52;101997.75;;;7.39;100.00
52535;BME280;38443;53.164;5.802;2023-04-26T07:40:18;102004.03;;;7.63;100.00
52535;BME280;38443;53.164;5.802;2023-04-26T07:42:44;102001.34;;;7.49;100.00
52535;BME280;38443;53.164;5.802;2023-04-26T07:45:09;102002.19;;;7.28;100.00
52535;BME280;38443;53.164;5.802;2023-04-26T07:47:35;102002.97;;;7.02;100.00
52535;BME280;38443;53.164;5.802;2023-04-26T07:50:00;102008.25;;;6.91;100.00
52535;BME280;38443;53.164;5.802;2023-04-26T07:52:25;102010.00;;;6.89;100.00
52535;BME280;38443;53.164;5.802;2023-04-26T07:54:51;102008.34;;;7.19;100.00
52535;BME280;38443;53.164;5.802;2023-04-26T07:57:16;102007.59;;;7.54;100.00
52535;BME280;38443;53.164;5.802;2023-04-26T07:59:41;102004.97;;;8.12;100.00
52535;BME280;38443;53.164;5.802;2023-04-26T08:02:06;102006.72;;;8.50;100.00
52535;BME280;38443;53.164;5.802;2023-04-26T08:04:32;101995.03;;;8.91;100.00
52535;BME280;38443;53.164;5.802;2023-04-26T08:06:59;101999.47;;;9.00;100.00
52535;BME280;38443;53.164;5.802;2023-04-26T08:09:26;102010.25;;;8.55;100.00
52535;BME280;38443;53.164;5.802;2023-04-26T08:11:51;102011.16;;;8.21;100.00
52535;BME280;38443;53.164;5.802;2023-04-26T08:14:17;101996.06;;;7.90;100.00
52535;BME280;38443;53.164;5.802;2023-04-26T08:16:42;102029.66;;;7.19;100.00
52535;BME280;38443;53.164;5.802;2023-04-26T08:19:08;102041.78;;;6.60;100.00
52535;BME280;38443;53.164;5.802;2023-04-26T08:21:33;102057.25;;;5.95;100.00
52535;BME280;38443;53.164;5.802;2023-04-26T08:23:58;102060.09;;;5.34;100.00
52535;BME280;38443;53.164;5.802;2023-04-26T08:26:24;102056.16;;;5.02;100.00
52535;BME280;38443;53.164;5.802;2023-04-26T08:28:49;102072.75;;;4.87;100.00
52535;BME280;38443;53.164;5.802;2023-04-26T08:31:15;102071.00;;;4.87;100.00
52535;BME280;38443;53.164;5.802;2023-04-26T08:33:40;102077.31;;;4.98;100.00
52535;BME280;38443;53.164;5.802;2023-04-26T08:36:06;102080.81;;;4.94;100.00
52535;BME280;38443;53.164;5.802;2023-04-26T08:38:32;102090.66;;;5.03;100.00
52535;BME280;38443;53.164;5.802;2023-04-26T08:40:58;102090.72;;;5.08;100.00
52535;BME280;38443;53.164;5.802;2023-04-26T08:43:27;102085.56;;;5.20;100.00
52535;BME280;38443;53.164;5.802;2023-04-26T08:45:53;102077.84;;;5.38;100.00
52535;BME280;38443;53.164;5.802;2023-04-26T08:48:19;102080.84;;;5.68;100.00
52535;BME280;38443;53.164;5.802;2023-04-26T08:50:47;102073.09;;;5.91;100.00
52535;BME280;38443;53.164;5.802;2023-04-26T08:53:16;102069.72;;;6.04;100.00
52535;BME280;38443;53.164;5.802;2023-04-26T08:55:48;102074.28;;;6.21;100.00
52535;BME280;38443;53.164;5.802;2023-04-26T08:58:13;102058.50;;;6.41;100.00
52535;BME280;38443;53.164;5.802;2023-04-26T09:00:38;102058.53;;;6.47;100.00
52535;BME280;38443;53.164;5.802;2023-04-26T09:03:06;102060.41;;;6.60;100.00
52535;BME280;38443;53.164;5.802;2023-04-26T09:05:32;102042.78;;;6.76;100.00
52535;BME280;38443;53.164;5.802;2023-04-26T09:08:03;102052.59;;;6.89;100.00
52535;BME280;38443;53.164;5.802;2023-04-26T09:10:30;102052.69;;;7.06;100.00
52535;BME280;38443;53.164;5.802;2023-04-26T09:12:56;102045.59;;;7.08;100.00
52535;BME280;38443;53.164;5.802;2023-04-26T09:15:22;102051.88;;;7.27;100.00
52535;BME280;38443;53.164;5.802;2023-04-26T09:17:48;102042.13;;;7.31;100.00
52535;BME280;38443;53.164;5.802;2023-04-26T09:20:24;102038.59;;;7.36;100.00
52535;BME280;38443;53.164;5.802;2023-04-26T09:23:04;102043.06;;;7.42;100.00
52535;BME280;38443;53.164;5.802;2023-04-26T09:25:31;102040.38;;;7.39;100.00
52535;BME280;38443;53.164;5.802;2023-04-26T09:27:56;102048.31;;;7.21;100.00
52535;BME280;38443;53.164;5.802;2023-04-26T09:30:22;102044.75;;;7.17;100.00
52535;BME280;38443;53.164;5.802;2023-04-26T09:37:54;102045.53;;;6.96;100.00
52535;BME280;38443;53.164;5.802;2023-04-26T09:40:21;102047.31;;;6.97;100.00
52535;BME280;38443;53.164;5.802;2023-04-26T09:42:58;102050.88;;;6.96;100.00
52535;BME280;38443;53.164;5.802;2023-04-26T09:45:25;102056.16;;;6.90;100.00
52535;BME280;38443;53.164;5.802;2023-04-26T09:47:51;102048.22;;;6.96;100.00
52535;BME280;38443;53.164;5.802;2023-04-26T09:50:26;102051.72;;;6.93;100.00
52535;BME280;38443;53.164;5.802;2023-04-26T09:52:51;102050.00;;;7.02;100.00
52535;BME280;38443;53.164;5.802;2023-04-26T09:55:29;102057.97;;;7.00;100.00
52535;BME280;38443;53.164;5.802;2023-04-26T09:57:55;102051.84;;;7.12;100.00
52535;BME280;38443;53.164;5.802;2023-04-26T10:00:23;102059.84;;;7.21;100.00
52535;BME280;38443;53.164;5.802;2023-04-26T10:02:51;102050.09;;;7.25;100.00
52535;BME280;38443;53.164;5.802;2023-04-26T10:05:17;102049.22;;;7.23;100.00
52535;BME280;38443;53.164;5.802;2023-04-26T10:07:43;102047.47;;;7.32;100.00
52535;BME280;38443;53.164;5.802;2023-04-26T10:10:10;102050.13;;;7.37;100.00
52535;BME280;38443;53.164;5.802;2023-04-26T10:12:42;102038.63;;;7.49;100.00
52535;BME280;38443;53.164;5.802;2023-04-26T10:15:09;102049.34;;;7.69;100.00
52535;BME280;38443;53.164;5.802;2023-04-26T10:17:35;102040.50;;;7.93;100.00
52535;BME280;38443;53.164;5.802;2023-04-26T10:20:00;102037.84;;;7.96;100.00
52535;BME280;38443;53.164;5.802;2023-04-26T10:22:32;102037.84;;;7.96;100.00
52535;BME280;38443;53.164;5.802;2023-04-26T10:25:00;102041.34;;;7.73;100.00
52535;BME280;38443;53.164;5.802;2023-04-26T10:30:13;102023.56;;;7.60;100.00
52535;BME280;38443;53.164;5.802;2023-04-26T10:35:21;102030.66;;;7.61;100.00
52535;BME280;38443;53.164;5.802;2023-04-26T10:40:26;102034.22;;;7.57;100.00
52535;BME280;38443;53.164;5.802;2023-04-26T10:45:33;102035.94;;;7.38;100.00
52535;BME280;38443;53.164;5.802;2023-04-26T10:48:32;102042.16;;;7.37;100.00
52535;BME280;38443;53.164;5.802;2023-04-26T10:53:33;102038.66;;;7.50;100.00
52535;BME280;38443;53.164;5.802;2023-04-26T10:59:07;102044.91;;;7.69;100.00
52535;BME280;38443;53.164;5.802;2023-04-26T11:01:34;102034.25;;;7.82;100.00
52535;BME280;38443;53.164;5.802;2023-04-26T11:06:25;102022.72;;;8.23;100.00
52535;BME280;38443;53.164;5.802;2023-04-26T11:08:51;102034.25;;;8.35;100.00
52535;BME280;38443;53.164;5.802;2023-04-26T11:11:17;102031.63;;;8.40;100.00
52535;BME280;38443;53.164;5.802;2023-04-26T11:13:46;102034.25;;;8.28;100.00
52535;BME280;38443;53.164;5.802;2023-04-26T11:16:12;102022.75;;;8.44;90.72
52535;BME280;38443;53.164;5.802;2023-04-26T11:18:43;102030.69;;;8.59;100.00
52535;BME280;38443;53.164;5.802;2023-04-26T11:21:09;102027.13;;;8.65;100.00
52535;BME280;38443;53.164;5.802;2023-04-26T11:23:35;102022.72;;;8.56;97.38
52535;BME280;38443;53.164;5.802;2023-04-26T11:26:02;102030.72;;;8.63;83.41
52535;BME280;38443;53.164;5.802;2023-04-26T11:28:28;102019.91;;;9.04;85.49
52535;BME280;38443;53.164;5.802;2023-04-26T11:30:53;102023.34;;;9.29;100.00
52535;BME280;38443;53.164;5.802;2023-04-26T11:33:20;102034.09;;;9.15;100.00
52535;BME280;38443;53.164;5.802;2023-04-26T11:35:53;102036.84;;;8.89;85.32
52535;BME280;38443;53.164;5.802;2023-04-26T11:38:23;102024.38;;;9.01;97.94
52535;BME280;38443;53.164;5.802;2023-04-26T11:40:57;102034.22;;;8.85;83.11
52535;BME280;38443;53.164;5.802;2023-04-26T11:45:59;102030.63;;;8.96;99.49
52535;BME280;38443;53.164;5.802;2023-04-26T11:48:31;102035.00;;;9.10;91.27
52535;BME280;38443;53.164;5.802;2023-04-26T11:50:58;102038.63;;;8.98;96.00
52535;BME280;38443;53.164;5.802;2023-04-26T11:53:24;102019.91;;;8.99;79.78
52535;BME280;38443;53.164;5.802;2023-04-26T11:55:49;102034.16;;;9.03;77.84
52535;BME280;38443;53.164;5.802;2023-04-26T11:58:15;102026.91;;;9.30;94.06
52535;BME280;38443;53.164;5.802;2023-04-26T12:00:53;102024.19;;;9.39;73.05
52535;BME280;38443;53.164;5.802;2023-04-26T12:03:19;102020.44;;;9.68;80.53
52535;BME280;38443;53.164;5.802;2023-04-26T12:05:52;102027.53;;;9.73;68.58
52535;BME280;38443;53.164;5.802;2023-04-26T12:08:22;102015.13;;;9.65;81.18
52535;BME280;38443;53.164;5.802;2023-04-26T12:10:48;102023.19;;;9.55;83.91
52535;BME280;38443;53.164;5.802;2023-04-26T12:13:13;102030.34;;;9.52;74.86
52535;BME280;38443;53.164;5.802;2023-04-26T12:15:38;102029.50;;;9.47;85.62
52535;BME280;38443;53.164;5.802;2023-04-26T12:18:10;102031.38;;;9.32;68.37
52535;BME280;38443;53.164;5.802;2023-04-26T12:20:37;102028.63;;;9.46;85.49
52535;BME280;38443;53.164;5.802;2023-04-26T12:23:07;102039.31;;;9.46;79.05
52535;BME280;38443;53.164;5.802;2023-04-26T12:25:35;102032.22;;;9.42;83.17
52535;BME280;38443;53.164;5.802;2023-04-26T12:28:02;102032.22;;;9.36;76.52
52535;BME280;38443;53.164;5.802;2023-04-26T12:30:28;102042.09;;;9.20;81.71
52535;BME280;38443;53.164;5.802;2023-04-26T12:32:54;102043.97;;;8.96;77.53
52535;BME280;38443;53.164;5.802;2023-04-26T12:35:20;102052.91;;;8.78;94.93
52535;BME280;38443;53.164;5.802;2023-04-26T12:37:45;102061.81;;;8.37;100.00
52535;BME280;38443;53.164;5.802;2023-04-26T12:40:12;102067.19;;;8.14;100.00
52535;BME280;38443;53.164;5.802;2023-04-26T12:42:37;102070.69;;;7.99;100.00
52535;BME280;38443;53.164;5.802;2023-04-26T12:45:03;102072.44;;;7.71;100.00
52535;BME280;38443;53.164;5.802;2023-04-26T12:47:29;102078.59;;;7.53;100.00
52535;BME280;38443;53.164;5.802;2023-04-26T12:49:56;102086.53;;;7.30;100.00
52535;BME280;38443;53.164;5.802;2023-04-26T12:52:23;102082.91;;;7.19;100.00
52535;BME280;38443;53.164;5.802;2023-04-26T12:54:48;102075.78;;;7.10;100.00
52535;BME280;38443;53.164;5.802;2023-04-26T12:57:13;102078.47;;;7.21;100.00
52535;BME280;38443;53.164;5.802;2023-04-26T12:59:39;102083.00;;;7.36;100.00
52535;BME280;38443;53.164;5.802;2023-04-26T13:02:05;102075.88;;;7.39;100.00
52535;BME280;38443;53.164;5.802;2023-04-26T13:04:32;102074.19;;;7.60;100.00
52535;BME280;38443;53.164;5.802;2023-04-26T13:06:58;102064.47;;;7.79;100.00
52535;BME280;38443;53.164;5.802;2023-04-26T13:09:23;102071.59;;;8.02;100.00
52535;BME280;38443;53.164;5.802;2023-04-26T13:11:48;102067.16;;;8.24;100.00